createdAt,value
2023-01-13T00:01:12.826Z,98.18
2023-01-13T00:03:43.779Z,98.32
2023-01-13T00:06:17.498Z,98.32
2023-01-13T00:08:50.636Z,98.36
2023-01-13T00:11:26.497Z,98.25
2023-01-13T00:13:57.053Z,98.26
2023-01-13T00:16:27.570Z,98.34
2023-01-13T00:18:58.183Z,98.31
2023-01-13T00:21:28.719Z,98.32
2023-01-13T00:23:59.183Z,98.35
2023-01-13T00:26:33.715Z,98.17
2023-01-13T00:29:04.610Z,98.31
2023-01-13T00:31:35.217Z,98.20
2023-01-13T00:34:05.911Z,98.25
2023-01-13T00:36:36.435Z,98.22
2023-01-13T00:39:06.902Z,98.19
2023-01-13T00:41:51.460Z,98.15
2023-01-13T00:44:22.235Z,98.26
2023-01-13T00:46:52.771Z,98.33
2023-01-13T00:49:23.303Z,98.19
2023-01-13T00:51:53.815Z,98.21
2023-01-13T00:54:25.444Z,98.28
2023-01-13T00:56:56.310Z,98.24
2023-01-13T00:59:26.758Z,98.36
2023-01-13T01:01:57.683Z,98.35
2023-01-13T01:04:28.262Z,98.24
2023-01-13T01:06:59.343Z,98.26
2023-01-13T01:09:32.897Z,98.42
2023-01-13T01:12:03.729Z,98.39
2023-01-13T01:14:34.202Z,98.44
2023-01-13T01:17:04.801Z,98.42
2023-01-13T01:19:37.523Z,98.32
2023-01-13T01:22:08.048Z,98.28
2023-01-13T01:24:39.481Z,98.35
2023-01-13T01:27:11.717Z,98.38
2023-01-13T01:29:43.393Z,98.55
2023-01-13T01:32:15.451Z,98.35
2023-01-13T01:34:47.411Z,98.26
2023-01-13T01:37:19.694Z,98.41
2023-01-13T01:39:51.424Z,98.32
2023-01-13T01:42:42.895Z,98.33
2023-01-13T01:45:21.243Z,98.42
2023-01-13T01:47:56.751Z,98.32
2023-01-13T01:50:29.020Z,98.35
2023-01-13T01:53:04.769Z,98.39
2023-01-13T01:55:38.452Z,98.42
2023-01-13T01:58:13.757Z,98.58
2023-01-13T02:00:45.505Z,98.50
2023-01-13T02:03:18.782Z,98.43
2023-01-13T02:05:48.504Z,98.42
2023-01-13T02:08:20.822Z,98.46
2023-01-13T02:10:56.472Z,98.53
2023-01-13T02:13:29.013Z,98.52
2023-01-13T02:16:07.836Z,98.63
2023-01-13T02:18:50.812Z,98.49
2023-01-13T02:21:26.528Z,98.49
2023-01-13T02:31:25.616Z,98.70
2023-01-13T02:34:05.784Z,98.62
2023-01-13T02:36:41.641Z,98.74
2023-01-13T02:39:17.829Z,98.75
2023-01-13T02:42:15.921Z,98.70
2023-01-13T02:44:49.950Z,98.86
2023-01-13T02:47:23.550Z,99.01
2023-01-13T02:49:58.598Z,98.95
2023-01-13T02:52:47.221Z,99.06
2023-01-13T02:55:22.427Z,98.91
2023-01-13T02:57:54.303Z,98.98
2023-01-13T03:00:25.813Z,99.04
2023-01-13T03:02:56.154Z,98.98
2023-01-13T03:05:26.683Z,98.94
2023-01-13T03:08:23.126Z,98.83
2023-01-13T03:11:04.132Z,98.89
2023-01-13T03:13:48.917Z,98.76
2023-01-13T03:16:27.628Z,98.91
2023-01-13T03:19:07.088Z,98.92
2023-01-13T03:21:41.821Z,98.89
2023-01-13T03:24:17.230Z,99.04
2023-01-13T03:26:50.196Z,98.94
2023-01-13T03:29:20.916Z,98.99
2023-01-13T03:32:01.013Z,99.09
2023-01-13T03:34:34.976Z,99.11
2023-01-13T03:37:08.243Z,99.07
2023-01-13T03:39:41.045Z,99.02
2023-01-13T03:42:14.816Z,99.04
2023-01-13T03:44:47.556Z,99.19
2023-01-13T03:47:24.300Z,99.15
2023-01-13T03:49:58.431Z,99.32
2023-01-13T03:52:31.005Z,99.20
2023-01-13T03:55:05.271Z,99.28
2023-01-13T03:57:37.968Z,99.15
2023-01-13T04:00:12.090Z,99.06
2023-01-13T04:02:50.219Z,99.23
2023-01-13T04:05:21.042Z,99.12
2023-01-13T04:07:55.278Z,99.05
2023-01-13T04:10:31.237Z,98.89
2023-01-13T04:13:05.233Z,98.98
2023-01-13T04:15:38.226Z,98.96
2023-01-13T04:18:12.482Z,99.09
2023-01-13T04:20:43.359Z,99.06
2023-01-13T04:23:14.658Z,99.10
2023-01-13T04:25:46.678Z,99.32
2023-01-13T04:28:17.642Z,99.21
2023-01-13T04:30:48.573Z,99.27
2023-01-13T04:33:20.219Z,99.31
2023-01-13T04:35:52.636Z,99.47
2023-01-13T04:38:25.103Z,99.43
2023-01-13T04:40:55.535Z,99.40
2023-01-13T04:43:25.909Z,99.49
2023-01-13T04:45:56.253Z,99.51
2023-01-13T04:48:26.610Z,99.52
2023-01-13T04:50:56.932Z,99.47
2023-01-13T04:53:27.289Z,99.60
2023-01-13T04:55:57.718Z,99.52
2023-01-13T04:58:28.128Z,99.51
2023-01-13T05:00:58.499Z,99.42
2023-01-13T05:03:28.933Z,99.50
2023-01-13T05:05:59.720Z,99.54
2023-01-13T05:08:30.155Z,99.74
2023-01-13T05:11:22.380Z,99.65
2023-01-13T05:14:10.586Z,99.67
2023-01-13T05:16:58.871Z,98.04
2023-01-13T05:19:29.648Z,97.08
2023-01-13T05:22:23.433Z,97.02
2023-01-13T05:25:11.531Z,97.21
2023-01-13T05:27:41.928Z,97.37
2023-01-13T05:30:14.021Z,97.65
2023-01-13T05:32:44.401Z,97.76
2023-01-13T05:35:16.044Z,97.85
2023-01-13T05:37:46.515Z,97.93
2023-01-13T05:40:36.800Z,97.92
2023-01-13T05:43:22.836Z,98.01
2023-01-13T05:45:55.135Z,97.87
2023-01-13T05:48:27.815Z,97.78
2023-01-13T05:50:58.465Z,97.66
2023-01-13T05:53:29.565Z,96.92
2023-01-13T05:56:00.269Z,96.17
2023-01-13T05:58:30.808Z,96.01
2023-01-13T06:01:04.367Z,95.68
2023-01-13T06:03:34.820Z,95.79
2023-01-13T06:06:06.018Z,95.94
2023-01-13T06:08:38.665Z,96.02
2023-01-13T06:11:10.093Z,95.96
2023-01-13T06:13:40.425Z,96.20
2023-01-13T06:16:11.763Z,96.18
2023-01-13T06:18:42.103Z,96.27
2023-01-13T06:21:12.643Z,96.34
2023-01-13T06:23:43.176Z,96.39
2023-01-13T06:26:17.391Z,96.43
2023-01-13T06:28:47.787Z,96.44
2023-01-13T06:31:19.172Z,96.54
2023-01-13T06:33:53.265Z,96.62
2023-01-13T06:36:25.741Z,96.64
2023-01-13T06:38:59.653Z,96.64
2023-01-13T06:41:51.867Z,96.66
2023-01-13T06:44:22.829Z,96.81
2023-01-13T06:46:53.602Z,96.85
2023-01-13T06:49:23.984Z,96.89
2023-01-13T06:51:54.421Z,96.99
2023-01-13T06:54:27.006Z,96.77
2023-01-13T06:57:00.722Z,96.58
2023-01-13T06:59:29.608Z,96.57
2023-01-13T07:01:59.964Z,96.46
2023-01-13T07:04:30.401Z,96.65
2023-01-13T07:07:00.859Z,96.78
2023-01-13T07:09:31.176Z,96.75
2023-01-13T07:12:01.660Z,96.74
2023-01-13T07:14:49.639Z,96.67
2023-01-13T07:17:25.293Z,96.65
2023-01-13T07:19:55.890Z,96.77
2023-01-13T07:22:26.359Z,96.64
2023-01-13T07:24:56.633Z,96.55
2023-01-13T07:27:26.926Z,96.37
2023-01-13T07:29:57.263Z,96.14
2023-01-13T07:32:27.686Z,96.02
2023-01-13T07:34:58.650Z,96.15
2023-01-13T07:37:29.044Z,96.20
2023-01-13T07:39:59.348Z,96.41
2023-01-13T07:42:47.037Z,96.42
2023-01-13T07:45:17.361Z,96.37
2023-01-13T07:47:47.632Z,96.35
2023-01-13T07:50:18.311Z,96.60
2023-01-13T07:52:48.771Z,97.03
2023-01-13T07:55:19.162Z,97.33
2023-01-13T07:57:50.299Z,97.42
2023-01-13T08:00:22.367Z,97.50
2023-01-13T08:02:52.861Z,97.47
2023-01-13T08:05:23.236Z,97.40
2023-01-13T08:07:53.592Z,97.39
2023-01-13T08:10:23.901Z,97.35
2023-01-13T08:13:11.912Z,97.08
2023-01-13T08:15:42.320Z,96.98
2023-01-13T08:18:12.806Z,97.02
2023-01-13T08:20:43.101Z,97.01
2023-01-13T08:23:13.412Z,96.95
2023-01-13T08:25:43.760Z,96.90
2023-01-13T08:28:14.365Z,96.81
2023-01-13T08:30:44.807Z,96.71
2023-01-13T08:33:15.536Z,96.77
2023-01-13T08:35:45.903Z,96.69
2023-01-13T08:38:16.172Z,96.57
2023-01-13T08:40:46.501Z,96.30
2023-01-13T08:43:19.096Z,96.19
2023-01-13T08:45:58.270Z,96.29
2023-01-13T08:48:31.468Z,96.25
2023-01-13T08:51:09.712Z,95.92
2023-01-13T08:53:40.172Z,95.61
2023-01-13T08:56:13.051Z,95.36
2023-01-13T08:58:43.545Z,95.20
2023-01-13T09:01:16.545Z,95.11
2023-01-13T09:03:46.995Z,94.94
2023-01-13T09:06:17.391Z,94.63
2023-01-13T09:08:48.602Z,94.14
2023-01-13T09:11:44.540Z,93.53
2023-01-13T09:14:14.856Z,92.24
2023-01-13T09:16:45.195Z,91.99
2023-01-13T09:19:15.697Z,91.26
2023-01-13T09:21:46.056Z,89.62
2023-01-13T09:24:16.688Z,88.14
2023-01-13T09:26:47.082Z,87.29
2023-01-13T09:29:17.599Z,85.18
2023-01-13T09:31:48.093Z,83.92
2023-01-13T09:34:37.682Z,82.04
2023-01-13T09:37:08.859Z,80.27
2023-01-13T09:39:39.591Z,79.93
2023-01-13T09:42:36.182Z,78.65
2023-01-13T09:45:10.255Z,77.85
2023-01-13T09:47:47.326Z,78.01
2023-01-13T09:50:30.616Z,77.03
2023-01-13T09:53:01.644Z,73.55
2023-01-13T09:55:36.687Z,70.52
2023-01-13T09:58:15.101Z,70.86
2023-01-13T10:00:47.933Z,70.55
2023-01-13T10:03:21.306Z,69.29
2023-01-13T10:05:57.400Z,69.79
2023-01-13T10:08:30.330Z,69.38
2023-01-13T10:11:22.749Z,69.27
2023-01-13T10:13:56.477Z,68.40
2023-01-13T10:16:34.439Z,65.44
2023-01-13T10:19:11.144Z,63.32
2023-01-13T10:21:56.401Z,64.20
2023-01-13T10:24:34.419Z,62.54
2023-01-13T10:27:06.465Z,63.23
2023-01-13T10:29:38.891Z,61.27
2023-01-13T10:32:10.170Z,59.11
2023-01-13T10:34:50.602Z,57.99
2023-01-13T10:37:26.820Z,58.69
2023-01-13T10:40:01.648Z,60.62
2023-01-13T10:42:31.947Z,61.33
2023-01-13T10:45:03.612Z,60.66
2023-01-13T10:47:36.464Z,61.07
2023-01-13T10:50:25.541Z,60.45
2023-01-13T10:53:01.436Z,59.38
2023-01-13T10:55:33.590Z,60.58
2023-01-13T10:58:15.483Z,62.13
2023-01-13T11:00:46.074Z,63.33
2023-01-13T11:03:21.355Z,65.00
2023-01-13T11:05:53.753Z,67.34
2023-01-13T11:08:26.842Z,68.98
2023-01-13T11:10:58.938Z,70.22
2023-01-13T11:13:33.208Z,71.95
2023-01-13T11:16:06.748Z,73.47
2023-01-13T11:18:43.595Z,75.10
2023-01-13T11:21:21.129Z,76.74
2023-01-13T11:23:54.591Z,76.89
2023-01-13T11:26:32.411Z,76.06
2023-01-13T11:29:07.148Z,74.36
2023-01-13T11:31:40.635Z,71.91
2023-01-13T11:34:19.135Z,69.61
2023-01-13T11:36:52.723Z,65.82
2023-01-13T11:39:27.128Z,64.25
2023-01-13T11:42:18.604Z,62.93
2023-01-13T11:44:52.536Z,61.16
2023-01-13T11:47:24.890Z,61.59
2023-01-13T11:49:55.247Z,59.31
2023-01-13T11:52:29.047Z,59.99
2023-01-13T11:55:11.021Z,59.64
2023-01-13T11:57:52.011Z,58.83
2023-01-13T12:00:35.684Z,56.85
2023-01-13T12:03:21.398Z,58.56
2023-01-13T12:06:02.884Z,59.07
2023-01-13T12:08:47.731Z,60.04
2023-01-13T12:11:22.762Z,62.41
2023-01-13T12:14:00.395Z,63.74
2023-01-13T12:16:31.394Z,64.39
2023-01-13T12:19:20.089Z,65.08
2023-01-13T12:22:04.661Z,67.34
2023-01-13T12:24:39.059Z,66.36
2023-01-13T12:27:14.656Z,65.67
2023-01-13T12:29:46.747Z,66.30
2023-01-13T12:32:20.982Z,65.30
2023-01-13T12:35:17.418Z,67.02
2023-01-13T12:37:53.755Z,68.02
2023-01-13T12:40:39.961Z,68.65
2023-01-13T12:43:34.991Z,68.51
2023-01-13T12:46:38.917Z,69.14
2023-01-13T12:49:15.782Z,69.86
2023-01-13T12:52:15.970Z,69.27
2023-01-13T12:55:16.746Z,69.97
2023-01-13T12:58:19.626Z,70.65
2023-01-13T13:00:59.751Z,72.08
2023-01-13T13:03:32.969Z,71.39
2023-01-13T13:06:10.134Z,72.39
2023-01-13T13:08:51.487Z,72.46
2023-01-13T13:12:09.428Z,72.61
2023-01-13T13:15:04.381Z,74.04
2023-01-13T13:18:00.178Z,74.12
2023-01-13T13:20:54.970Z,74.91
2023-01-13T13:23:49.827Z,75.53
2023-01-13T13:26:27.835Z,76.72
2023-01-13T13:29:10.794Z,77.40
2023-01-13T13:32:06.083Z,78.19
2023-01-13T13:34:46.809Z,78.87
2023-01-13T13:37:34.104Z,79.22
2023-01-13T13:40:30.407Z,78.75
2023-01-13T13:43:19.390Z,78.02
2023-01-13T13:46:12.118Z,78.09
2023-01-13T13:48:54.732Z,78.83
2023-01-13T13:51:30.844Z,79.19
2023-01-13T13:54:03.848Z,79.43
2023-01-13T13:56:41.894Z,80.11
2023-01-13T13:59:18.455Z,80.77
2023-01-13T14:02:00.940Z,81.52
2023-01-13T14:04:35.458Z,81.88
2023-01-13T14:07:21.484Z,82.26
2023-01-13T14:09:56.886Z,82.51
2023-01-13T14:12:30.837Z,82.74
2023-01-13T14:15:03.867Z,82.85
2023-01-13T14:17:36.167Z,82.87
2023-01-13T14:20:16.851Z,82.64
2023-01-13T14:30:55.085Z,83.12
2023-01-13T14:33:34.893Z,83.34
2023-01-13T14:36:19.500Z,83.40
2023-01-13T14:38:51.885Z,82.83
2023-01-13T14:41:25.278Z,82.78
2023-01-13T14:43:59.488Z,82.89
2023-01-13T14:46:40.202Z,82.78
2023-01-13T14:49:20.902Z,82.38
2023-01-13T14:51:51.335Z,82.43
2023-01-13T14:54:56.322Z,82.85
2023-01-13T14:57:31.933Z,82.55
2023-01-13T15:00:18.767Z,82.38
2023-01-13T15:02:50.444Z,82.50
2023-01-13T15:05:33.799Z,82.58
2023-01-13T15:08:06.709Z,82.72
2023-01-13T15:10:37.990Z,82.51
2023-01-13T15:13:20.126Z,82.04
2023-01-13T15:15:53.506Z,82.13
2023-01-13T15:18:23.939Z,82.32
2023-01-13T15:20:54.419Z,82.51
2023-01-13T15:23:26.654Z,82.67
2023-01-13T15:25:57.120Z,82.42
2023-01-13T15:28:28.277Z,82.25
2023-01-13T15:31:00.582Z,82.06
2023-01-13T15:33:30.958Z,82.20
2023-01-13T15:36:01.751Z,82.55
2023-01-13T15:38:32.199Z,82.70
2023-01-13T15:41:02.459Z,82.74
2023-01-13T15:43:50.307Z,83.01
2023-01-13T15:46:39.500Z,83.06
2023-01-13T15:49:17.100Z,82.89
2023-01-13T15:51:48.157Z,83.53
2023-01-13T15:54:19.895Z,83.57
2023-01-13T15:56:50.161Z,83.38
2023-01-13T15:59:25.515Z,83.49
2023-01-13T16:01:55.825Z,83.76
2023-01-13T16:04:26.152Z,83.87
2023-01-13T16:06:56.551Z,83.50
2023-01-13T16:09:26.895Z,83.22
2023-01-13T16:11:57.181Z,83.50
2023-01-13T16:14:29.393Z,83.52
2023-01-13T16:16:59.827Z,83.47
2023-01-13T16:19:30.263Z,82.97
2023-01-13T16:22:00.577Z,83.02
2023-01-13T16:24:30.967Z,83.21
2023-01-13T16:27:01.388Z,83.11
2023-01-13T16:29:31.854Z,82.52
2023-01-13T16:32:02.345Z,82.85
2023-01-13T16:34:32.673Z,82.74
2023-01-13T16:37:03.496Z,82.27
2023-01-13T16:39:34.404Z,82.13
2023-01-13T16:42:04.931Z,82.05
2023-01-13T16:44:35.386Z,82.00
2023-01-13T16:47:06.449Z,81.99
2023-01-13T16:49:40.218Z,82.01
2023-01-13T16:52:10.557Z,82.17
2023-01-13T16:54:41.053Z,82.47
2023-01-13T16:57:13.981Z,81.84
2023-01-13T16:59:47.739Z,81.79
2023-01-13T17:02:21.017Z,81.90
2023-01-13T17:04:51.626Z,81.82
2023-01-13T17:07:25.144Z,81.46
2023-01-13T17:09:55.477Z,81.46
2023-01-13T17:12:25.938Z,81.50
2023-01-13T17:14:58.138Z,80.99
2023-01-13T17:17:30.278Z,80.78
2023-01-13T17:20:01.784Z,80.80
2023-01-13T17:22:32.461Z,80.97
2023-01-13T17:25:04.960Z,81.22
2023-01-13T17:27:35.490Z,80.67
2023-01-13T17:30:10.520Z,80.64
2023-01-13T17:32:41.496Z,80.90
2023-01-13T17:35:14.228Z,80.76
2023-01-13T17:37:44.707Z,81.21
2023-01-13T17:40:15.968Z,81.26
2023-01-13T17:42:46.267Z,81.26
2023-01-13T17:45:16.580Z,81.01
2023-01-13T17:47:47.573Z,80.76
2023-01-13T17:50:18.550Z,80.16
2023-01-13T17:52:48.925Z,80.28
2023-01-13T17:55:19.703Z,80.66
2023-01-13T17:57:50.031Z,80.67
2023-01-13T18:00:21.735Z,80.70
2023-01-13T18:02:52.514Z,80.43
2023-01-13T18:05:23.638Z,80.63
2023-01-13T18:07:54.841Z,80.58
2023-01-13T18:10:25.346Z,80.81
2023-01-13T18:12:56.178Z,80.99
2023-01-13T18:15:26.851Z,80.63
2023-01-13T18:17:57.294Z,80.96
2023-01-13T18:20:45.526Z,81.05
2023-01-13T18:23:37.886Z,81.06
2023-01-13T18:26:39.092Z,81.19
2023-01-13T18:29:09.917Z,81.35
2023-01-13T18:31:40.933Z,81.39
2023-01-13T18:34:11.559Z,81.42
2023-01-13T18:36:41.939Z,81.41
2023-01-13T18:39:12.375Z,81.42
2023-01-13T18:42:00.498Z,81.21
2023-01-13T18:44:30.927Z,81.15
2023-01-13T18:47:01.624Z,81.57
2023-01-13T18:49:32.238Z,81.67
2023-01-13T18:52:02.712Z,81.93
2023-01-13T18:54:33.093Z,82.12
2023-01-13T18:57:03.663Z,82.24
2023-01-13T18:59:34.796Z,82.35
2023-01-13T19:02:11.197Z,82.39
2023-01-13T19:04:42.029Z,82.29
2023-01-13T19:07:13.389Z,82.70
2023-01-13T19:09:44.334Z,82.84
2023-01-13T19:12:16.133Z,82.62
2023-01-13T19:14:47.384Z,82.45
2023-01-13T19:17:18.683Z,82.53
2023-01-13T19:19:50.891Z,82.68
2023-01-13T19:22:23.406Z,82.95
2023-01-13T19:24:53.990Z,81.98
2023-01-13T19:27:24.724Z,82.50
2023-01-13T19:29:58.281Z,82.28
2023-01-13T19:32:30.626Z,82.35
2023-01-13T19:35:01.291Z,82.31
2023-01-13T19:37:33.639Z,82.32
2023-01-13T19:40:09.233Z,82.04
2023-01-13T19:42:57.455Z,82.15
2023-01-13T19:45:28.074Z,82.09
2023-01-13T19:48:01.569Z,82.03
2023-01-13T19:50:32.948Z,82.12
2023-01-13T19:53:03.525Z,82.16
2023-01-13T19:55:34.503Z,82.22
2023-01-13T19:58:05.081Z,82.25
2023-01-13T20:00:35.512Z,82.14
2023-01-13T20:03:10.655Z,81.81
2023-01-13T20:05:43.253Z,81.59
2023-01-13T20:08:13.667Z,81.79
2023-01-13T20:10:46.813Z,81.75
2023-01-13T20:13:17.383Z,81.54
2023-01-13T20:15:47.809Z,81.49
2023-01-13T20:18:18.718Z,81.51
2023-01-13T20:20:49.586Z,81.71
2023-01-13T20:23:19.933Z,81.41
2023-01-13T20:25:50.497Z,81.53
2023-01-13T20:28:20.902Z,81.60
2023-01-13T20:30:51.333Z,81.60
2023-01-13T20:33:22.167Z,81.21
2023-01-13T20:36:00.239Z,81.32
2023-01-13T20:38:36.862Z,81.12
2023-01-13T20:41:22.906Z,80.87
2023-01-13T20:43:53.560Z,80.40
2023-01-13T20:46:24.313Z,80.32
2023-01-13T20:48:54.879Z,80.26
2023-01-13T20:51:25.227Z,80.24
2023-01-13T20:53:56.720Z,79.86
2023-01-13T20:56:27.087Z,79.89
2023-01-13T20:58:57.544Z,79.38
2023-01-13T21:01:28.185Z,79.18
2023-01-13T21:03:59.967Z,79.46
2023-01-13T21:06:30.878Z,79.31
2023-01-13T21:09:01.494Z,78.85
2023-01-13T21:11:49.317Z,78.72
2023-01-13T21:14:39.142Z,78.78
2023-01-13T21:17:33.285Z,78.52
2023-01-13T21:20:04.637Z,78.69
2023-01-13T21:22:35.871Z,78.75
2023-01-13T21:25:07.271Z,78.48
2023-01-13T21:27:37.693Z,78.45
2023-01-13T21:30:13.317Z,78.33
2023-01-13T21:32:44.005Z,78.39
2023-01-13T21:35:15.310Z,78.53
2023-01-13T21:37:46.179Z,78.55
2023-01-13T21:40:16.795Z,78.41
2023-01-13T21:43:04.720Z,78.10
2023-01-13T21:45:52.777Z,78.14
2023-01-13T21:48:23.262Z,78.28
2023-01-13T21:50:53.604Z,78.28
2023-01-13T21:53:23.886Z,78.17
2023-01-13T21:55:54.445Z,78.13
2023-01-13T21:58:25.068Z,78.27
2023-01-13T22:00:55.537Z,78.10
2023-01-13T22:03:25.987Z,78.42
2023-01-13T22:05:59.467Z,78.36
2023-01-13T22:08:32.640Z,78.25
2023-01-13T22:11:04.854Z,78.21
2023-01-13T22:13:52.855Z,78.16
2023-01-13T22:16:23.859Z,78.17
2023-01-13T22:18:54.745Z,78.20
2023-01-13T22:21:25.280Z,78.38
2023-01-13T22:23:56.235Z,78.14
2023-01-13T22:26:26.906Z,78.28
2023-01-13T22:28:57.524Z,79.26
2023-01-13T22:31:28.036Z,80.09
2023-01-13T22:33:58.645Z,80.72
2023-01-13T22:36:29.174Z,81.64
2023-01-13T22:39:00.380Z,82.13
2023-01-13T22:41:31.019Z,82.76
2023-01-13T22:44:01.392Z,83.05
2023-01-13T22:46:32.124Z,83.30
2023-01-13T22:49:02.567Z,83.71
2023-01-13T22:51:32.994Z,83.90
2023-01-13T22:54:03.329Z,84.37
2023-01-13T22:56:34.368Z,84.71
2023-01-13T22:59:06.227Z,85.04
2023-01-13T23:01:37.355Z,85.50
2023-01-13T23:04:08.129Z,85.77
2023-01-13T23:06:38.759Z,85.90
2023-01-13T23:09:10.675Z,86.09
2023-01-13T23:11:42.499Z,86.40
2023-01-13T23:14:14.910Z,86.54
2023-01-13T23:16:47.111Z,86.67
2023-01-13T23:19:17.710Z,86.80
2023-01-13T23:21:48.131Z,86.97
2023-01-13T23:24:18.531Z,87.28
2023-01-13T23:26:49.094Z,87.50
2023-01-13T23:29:19.457Z,87.78
2023-01-13T23:31:49.875Z,87.93
2023-01-13T23:34:20.512Z,88.03
2023-01-13T23:36:50.937Z,88.20
2023-01-13T23:39:21.413Z,88.17
2023-01-13T23:41:51.884Z,88.35
2023-01-13T23:44:22.241Z,88.59
2023-01-13T23:46:52.610Z,88.73
2023-01-13T23:49:23.044Z,88.85
2023-01-13T23:51:53.919Z,88.98
2023-01-13T23:54:24.524Z,89.12
2023-01-13T23:56:55.208Z,89.20
2023-01-13T23:59:26.383Z,89.22
